Levin, New Zealand
Current Conditions -  °F | °C
As of 4:30 PM on Thursday 27 Nov 2014 (Local Time) from NZWN Reporting Station
Clear Clear  
Wind Chill: 63°   Ceiling: Unl
Heat Index: 63°   Visibility: 6mi
Dew Point: 52°   Wind: 24mph
Humidity: 68%   Direction: 330°NNW
Pressure: 29.59"   Gusts: 38mph
Location:  40.62°S, 175.28°E
Report Text: NZWN 270430Z AUTO 33021G33KT 9999 NCD 17/11 Q1002 NOSIG
Loading
Personal Weather Stations






























Interactive Weather Map New forecast layout! Learn more

10-Day Weather Forecast

Advertisements
Track Severe Weather on mobile